Terminal Aerodrome Forecast
Issued by NWS

Home | Current Version | Previous Version | Text Only | Print | Product List | Glossary On
Versions: 1 2 3 4 5 6 7 8 9 10 11 12 13 14 15 16
978
FTUS43 KILX 070529
TAFBMI
TAF
KBMI 070529Z 0706/0806 21009KT P6SM SCT250
     FM070900 22014KT P6SM BKN120
     FM071600 25015G25KT P6SM SCT040 BKN100
     FM080000 27010KT P6SM SCT020 OVC035=

USA.gov is the U.S. government's official web portal to all federal, state and local government web resources and services.